sensor_id;sensor_type;location;lat;lon;timestamp;temperature;humidity
23475;DHT22;11910;52.086;21.066;2022-09-09T00:00:15;12.40;99.90
23475;DHT22;11910;52.086;21.066;2022-09-09T00:02:54;12.40;99.90
23475;DHT22;11910;52.086;21.066;2022-09-09T00:07:55;12.40;99.90
23475;DHT22;11910;52.086;21.066;2022-09-09T00:10:34;12.30;99.90
23475;DHT22;11910;52.086;21.066;2022-09-09T00:13:46;12.20;99.90
23475;DHT22;11910;52.086;21.066;2022-09-09T00:16:20;12.20;99.90
23475;DHT22;11910;52.086;21.066;2022-09-09T00:18:56;12.20;99.90
23475;DHT22;11910;52.086;21.066;2022-09-09T00:21:36;12.10;99.90
23475;DHT22;11910;52.086;21.066;2022-09-09T00:26:55;12.00;99.90
23475;DHT22;11910;52.086;21.066;2022-09-09T00:29:53;12.00;99.90
23475;DHT22;11910;52.086;21.066;2022-09-09T00:32:20;12.00;99.90
23475;DHT22;11910;52.086;21.066;2022-09-09T00:34:51;12.00;99.90
23475;DHT22;11910;52.086;21.066;2022-09-09T00:37:19;11.90;99.90
23475;DHT22;11910;52.086;21.066;2022-09-09T00:39:47;11.90;99.90
23475;DHT22;11910;52.086;21.066;2022-09-09T00:42:43;11.90;99.90
23475;DHT22;11910;52.086;21.066;2022-09-09T00:47:53;11.90;99.90
23475;DHT22;11910;52.086;21.066;2022-09-09T00:58:21;12.10;99.90
23475;DHT22;11910;52.086;21.066;2022-09-09T01:00:52;12.20;99.90
23475;DHT22;11910;52.086;21.066;2022-09-09T01:06:13;12.20;99.90
23475;DHT22;11910;52.086;21.066;2022-09-09T01:09:10;12.30;99.90
23475;DHT22;11910;52.086;21.066;2022-09-09T01:17:09;12.10;99.90
23475;DHT22;11910;52.086;21.066;2022-09-09T01:22:15;12.20;99.90
23475;DHT22;11910;52.086;21.066;2022-09-09T01:25:13;12.20;99.90
23475;DHT22;11910;52.086;21.066;2022-09-09T01:27:44;12.20;99.90
23475;DHT22;11910;52.086;21.066;2022-09-09T01:30:14;12.20;99.90
23475;DHT22;11910;52.086;21.066;2022-09-09T01:32:49;12.20;99.90
23475;DHT22;11910;52.086;21.066;2022-09-09T01:35:44;12.30;99.90
23475;DHT22;11910;52.086;21.066;2022-09-09T01:38:13;12.30;99.90
23475;DHT22;11910;52.086;21.066;2022-09-09T01:40:39;12.40;99.90
23475;DHT22;11910;52.086;21.066;2022-09-09T01:43:04;12.40;99.90
23475;DHT22;11910;52.086;21.066;2022-09-09T01:45:32;12.30;99.90
23475;DHT22;11910;52.086;21.066;2022-09-09T01:47:58;12.40;99.90
23475;DHT22;11910;52.086;21.066;2022-09-09T01:50:24;12.50;99.90
23475;DHT22;11910;52.086;21.066;2022-09-09T01:52:54;12.40;99.90
23475;DHT22;11910;52.086;21.066;2022-09-09T01:55:29;12.40;99.90
23475;DHT22;11910;52.086;21.066;2022-09-09T02:00:33;12.30;99.90
23475;DHT22;11910;52.086;21.066;2022-09-09T02:03:24;12.40;99.90
23475;DHT22;11910;52.086;21.066;2022-09-09T02:06:23;12.40;99.90
23475;DHT22;11910;52.086;21.066;2022-09-09T02:08:53;12.50;99.90
23475;DHT22;11910;52.086;21.066;2022-09-09T02:11:22;12.40;99.90
23475;DHT22;11910;52.086;21.066;2022-09-09T02:13:51;12.50;99.90
23475;DHT22;11910;52.086;21.066;2022-09-09T02:16:27;12.60;99.90
23475;DHT22;11910;52.086;21.066;2022-09-09T02:18:55;12.50;99.90
23475;DHT22;11910;52.086;21.066;2022-09-09T02:21:23;12.50;99.90
23475;DHT22;11910;52.086;21.066;2022-09-09T02:23:50;12.60;99.90
23475;DHT22;11910;52.086;21.066;2022-09-09T02:26:18;12.70;99.90
23475;DHT22;11910;52.086;21.066;2022-09-09T02:28:49;12.70;99.90
23475;DHT22;11910;52.086;21.066;2022-09-09T02:31:19;12.60;99.90
23475;DHT22;11910;52.086;21.066;2022-09-09T02:33:51;12.70;99.90
23475;DHT22;11910;52.086;21.066;2022-09-09T02:36:19;12.70;99.90
23475;DHT22;11910;52.086;21.066;2022-09-09T02:38:46;12.60;99.90
23475;DHT22;11910;52.086;21.066;2022-09-09T02:41:20;12.70;99.90
23475;DHT22;11910;52.086;21.066;2022-09-09T02:43:48;12.70;99.90
23475;DHT22;11910;52.086;21.066;2022-09-09T02:49:09;12.70;99.90
23475;DHT22;11910;52.086;21.066;2022-09-09T02:51:38;12.80;99.90
23475;DHT22;11910;52.086;21.066;2022-09-09T02:56:59;12.80;99.90
23475;DHT22;11910;52.086;21.066;2022-09-09T02:59:26;12.80;99.90
23475;DHT22;11910;52.086;21.066;2022-09-09T03:01:52;12.90;99.90
23475;DHT22;11910;52.086;21.066;2022-09-09T03:04:18;12.80;99.90
23475;DHT22;11910;52.086;21.066;2022-09-09T03:06:44;12.90;99.90
23475;DHT22;11910;52.086;21.066;2022-09-09T03:09:10;12.80;99.90
23475;DHT22;11910;52.086;21.066;2022-09-09T03:11:36;12.80;99.90
23475;DHT22;11910;52.086;21.066;2022-09-09T03:14:02;12.80;99.90
23475;DHT22;11910;52.086;21.066;2022-09-09T03:16:28;12.80;99.90
23475;DHT22;11910;52.086;21.066;2022-09-09T03:18:54;12.80;99.90
23475;DHT22;11910;52.086;21.066;2022-09-09T03:21:19;12.80;99.90
23475;DHT22;11910;52.086;21.066;2022-09-09T03:23:46;12.80;99.90
23475;DHT22;11910;52.086;21.066;2022-09-09T03:26:12;12.70;99.90
23475;DHT22;11910;52.086;21.066;2022-09-09T03:28:40;12.80;99.90
23475;DHT22;11910;52.086;21.066;2022-09-09T03:31:06;12.70;99.90
23475;DHT22;11910;52.086;21.066;2022-09-09T03:33:31;12.80;99.90
23475;DHT22;11910;52.086;21.066;2022-09-09T03:35:57;12.70;99.90
23475;DHT22;11910;52.086;21.066;2022-09-09T03:38:24;12.70;99.90
23475;DHT22;11910;52.086;21.066;2022-09-09T03:40:54;12.80;99.90
23475;DHT22;11910;52.086;21.066;2022-09-09T03:43:21;12.90;99.90
23475;DHT22;11910;52.086;21.066;2022-09-09T03:45:47;13.00;99.90
23475;DHT22;11910;52.086;21.066;2022-09-09T03:48:14;13.00;99.90
23475;DHT22;11910;52.086;21.066;2022-09-09T03:50:45;13.00;99.90
23475;DHT22;11910;52.086;21.066;2022-09-09T03:53:11;13.00;99.90
23475;DHT22;11910;52.086;21.066;2022-09-09T03:55:36;13.10;99.90
23475;DHT22;11910;52.086;21.066;2022-09-09T03:58:02;13.00;99.90
23475;DHT22;11910;52.086;21.066;2022-09-09T04:00:28;12.90;99.90
23475;DHT22;11910;52.086;21.066;2022-09-09T04:02:54;13.00;99.90
23475;DHT22;11910;52.086;21.066;2022-09-09T04:05:23;12.90;99.90
23475;DHT22;11910;52.086;21.066;2022-09-09T04:07:48;13.00;99.90
23475;DHT22;11910;52.086;21.066;2022-09-09T04:10:14;12.90;99.90
23475;DHT22;11910;52.086;21.066;2022-09-09T04:12:41;13.00;99.90
23475;DHT22;11910;52.086;21.066;2022-09-09T04:15:07;13.00;99.90
23475;DHT22;11910;52.086;21.066;2022-09-09T04:17:32;13.10;99.90
23475;DHT22;11910;52.086;21.066;2022-09-09T04:19:58;13.10;99.90
23475;DHT22;11910;52.086;21.066;2022-09-09T04:22:24;13.00;99.90
23475;DHT22;11910;52.086;21.066;2022-09-09T04:24:49;12.90;99.90
23475;DHT22;11910;52.086;21.066;2022-09-09T04:27:15;13.00;99.90
23475;DHT22;11910;52.086;21.066;2022-09-09T04:29:41;13.00;99.90
23475;DHT22;11910;52.086;21.066;2022-09-09T04:32:06;13.00;99.90
23475;DHT22;11910;52.086;21.066;2022-09-09T04:34:32;13.00;99.90
23475;DHT22;11910;52.086;21.066;2022-09-09T04:36:58;13.10;99.90
23475;DHT22;11910;52.086;21.066;2022-09-09T04:39:25;13.10;99.90
23475;DHT22;11910;52.086;21.066;2022-09-09T04:41:51;13.10;99.90
23475;DHT22;11910;52.086;21.066;2022-09-09T04:44:17;13.10;99.90
23475;DHT22;11910;52.086;21.066;2022-09-09T04:46:42;13.20;99.90
23475;DHT22;11910;52.086;21.066;2022-09-09T04:49:08;13.20;99.90
23475;DHT22;11910;52.086;21.066;2022-09-09T04:51:34;13.10;99.90
23475;DHT22;11910;52.086;21.066;2022-09-09T04:53:59;13.20;99.90
23475;DHT22;11910;52.086;21.066;2022-09-09T04:56:25;13.10;99.90
23475;DHT22;11910;52.086;21.066;2022-09-09T04:58:53;13.10;99.90
23475;DHT22;11910;52.086;21.066;2022-09-09T05:01:21;13.20;99.90
23475;DHT22;11910;52.086;21.066;2022-09-09T05:03:48;13.30;99.90
23475;DHT22;11910;52.086;21.066;2022-09-09T05:06:18;13.30;99.90
23475;DHT22;11910;52.086;21.066;2022-09-09T05:08:44;13.40;99.90
23475;DHT22;11910;52.086;21.066;2022-09-09T05:13:47;13.50;99.90
23475;DHT22;11910;52.086;21.066;2022-09-09T05:16:14;13.40;99.90
23475;DHT22;11910;52.086;21.066;2022-09-09T05:18:40;13.50;99.90
23475;DHT22;11910;52.086;21.066;2022-09-09T05:21:08;13.40;99.90
23475;DHT22;11910;52.086;21.066;2022-09-09T05:23:34;13.40;99.90
23475;DHT22;11910;52.086;21.066;2022-09-09T05:26:00;13.40;99.90
23475;DHT22;11910;52.086;21.066;2022-09-09T05:28:26;13.40;99.90
23475;DHT22;11910;52.086;21.066;2022-09-09T05:30:59;13.50;99.90
23475;DHT22;11910;52.086;21.066;2022-09-09T05:33:27;13.60;99.90
23475;DHT22;11910;52.086;21.066;2022-09-09T05:35:59;13.50;99.90
23475;DHT22;11910;52.086;21.066;2022-09-09T05:38:28;13.50;99.90
23475;DHT22;11910;52.086;21.066;2022-09-09T05:40:54;13.60;99.90
23475;DHT22;11910;52.086;21.066;2022-09-09T05:43:22;13.70;99.90
23475;DHT22;11910;52.086;21.066;2022-09-09T05:45:48;13.70;99.90
23475;DHT22;11910;52.086;21.066;2022-09-09T05:48:23;13.70;99.90
23475;DHT22;11910;52.086;21.066;2022-09-09T05:50:53;13.70;99.90
23475;DHT22;11910;52.086;21.066;2022-09-09T05:53:19;13.70;99.90
23475;DHT22;11910;52.086;21.066;2022-09-09T05:55:45;13.70;99.90
23475;DHT22;11910;52.086;21.066;2022-09-09T05:58:11;13.70;99.90
23475;DHT22;11910;52.086;21.066;2022-09-09T06:00:37;13.70;99.90
23475;DHT22;11910;52.086;21.066;2022-09-09T06:03:03;13.60;99.90
23475;DHT22;11910;52.086;21.066;2022-09-09T06:05:29;13.60;99.90
23475;DHT22;11910;52.086;21.066;2022-09-09T06:07:55;13.70;99.90
23475;DHT22;11910;52.086;21.066;2022-09-09T06:10:22;13.70;99.90
23475;DHT22;11910;52.086;21.066;2022-09-09T06:12:48;13.70;99.90
23475;DHT22;11910;52.086;21.066;2022-09-09T06:15:13;13.70;99.90
23475;DHT22;11910;52.086;21.066;2022-09-09T06:17:39;13.70;99.90
23475;DHT22;11910;52.086;21.066;2022-09-09T06:20:07;13.70;99.90
23475;DHT22;11910;52.086;21.066;2022-09-09T06:22:34;13.70;99.90
23475;DHT22;11910;52.086;21.066;2022-09-09T06:25:00;13.80;99.90
23475;DHT22;11910;52.086;21.066;2022-09-09T06:27:27;13.80;99.90
23475;DHT22;11910;52.086;21.066;2022-09-09T06:29:53;13.90;99.90
23475;DHT22;11910;52.086;21.066;2022-09-09T06:32:19;13.90;99.90
23475;DHT22;11910;52.086;21.066;2022-09-09T06:34:45;13.80;99.90
23475;DHT22;11910;52.086;21.066;2022-09-09T06:37:10;13.90;99.90
23475;DHT22;11910;52.086;21.066;2022-09-09T06:39:36;13.80;99.90
23475;DHT22;11910;52.086;21.066;2022-09-09T06:42:02;13.70;99.90
23475;DHT22;11910;52.086;21.066;2022-09-09T06:44:27;13.70;99.90
23475;DHT22;11910;52.086;21.066;2022-09-09T06:46:53;13.70;99.90
23475;DHT22;11910;52.086;21.066;2022-09-09T06:49:19;13.70;99.90
23475;DHT22;11910;52.086;21.066;2022-09-09T06:51:44;13.90;99.90
23475;DHT22;11910;52.086;21.066;2022-09-09T06:54:11;13.90;99.90
23475;DHT22;11910;52.086;21.066;2022-09-09T06:56:41;13.90;99.90
23475;DHT22;11910;52.086;21.066;2022-09-09T06:59:09;13.90;99.90
23475;DHT22;11910;52.086;21.066;2022-09-09T07:01:37;14.00;99.90
23475;DHT22;11910;52.086;21.066;2022-09-09T07:04:04;14.10;99.90
23475;DHT22;11910;52.086;21.066;2022-09-09T07:06:35;14.10;99.90
23475;DHT22;11910;52.086;21.066;2022-09-09T07:09:07;14.00;99.90
23475;DHT22;11910;52.086;21.066;2022-09-09T07:11:52;14.00;99.90
23475;DHT22;11910;52.086;21.066;2022-09-09T07:14:20;14.10;99.90
23475;DHT22;11910;52.086;21.066;2022-09-09T07:16:47;14.20;99.90
23475;DHT22;11910;52.086;21.066;2022-09-09T07:19:13;14.20;99.90
23475;DHT22;11910;52.086;21.066;2022-09-09T07:21:40;14.20;99.90
23475;DHT22;11910;52.086;21.066;2022-09-09T07:24:05;14.20;99.90
23475;DHT22;11910;52.086;21.066;2022-09-09T07:26:36;14.10;99.90
23475;DHT22;11910;52.086;21.066;2022-09-09T07:29:02;14.20;99.90
23475;DHT22;11910;52.086;21.066;2022-09-09T07:31:33;14.20;99.90
23475;DHT22;11910;52.086;21.066;2022-09-09T07:34:00;14.30;99.90
23475;DHT22;11910;52.086;21.066;2022-09-09T07:36:28;14.20;99.90
23475;DHT22;11910;52.086;21.066;2022-09-09T07:39:15;14.30;99.90
23475;DHT22;11910;52.086;21.066;2022-09-09T07:41:45;14.30;99.90
23475;DHT22;11910;52.086;21.066;2022-09-09T07:44:13;14.30;99.90
23475;DHT22;11910;52.086;21.066;2022-09-09T07:46:40;14.30;99.90
23475;DHT22;11910;52.086;21.066;2022-09-09T07:49:06;14.30;99.90
23475;DHT22;11910;52.086;21.066;2022-09-09T07:51:35;14.40;99.90
23475;DHT22;11910;52.086;21.066;2022-09-09T07:54:03;14.40;99.90
23475;DHT22;11910;52.086;21.066;2022-09-09T07:56:30;14.30;99.90
23475;DHT22;11910;52.086;21.066;2022-09-09T07:58:57;14.30;99.90
23475;DHT22;11910;52.086;21.066;2022-09-09T08:01:53;14.30;99.90
23475;DHT22;11910;52.086;21.066;2022-09-09T08:04:20;14.30;99.90
23475;DHT22;11910;52.086;21.066;2022-09-09T08:06:49;14.40;99.90
23475;DHT22;11910;52.086;21.066;2022-09-09T08:09:16;14.30;99.90
23475;DHT22;11910;52.086;21.066;2022-09-09T08:11:42;14.30;99.90
23475;DHT22;11910;52.086;21.066;2022-09-09T08:14:09;14.40;99.90
23475;DHT22;11910;52.086;21.066;2022-09-09T08:16:38;14.40;99.90
23475;DHT22;11910;52.086;21.066;2022-09-09T08:19:04;14.40;99.90
23475;DHT22;11910;52.086;21.066;2022-09-09T08:21:32;14.40;99.90
23475;DHT22;11910;52.086;21.066;2022-09-09T08:24:00;14.50;99.90
23475;DHT22;11910;52.086;21.066;2022-09-09T08:26:34;14.50;99.90
23475;DHT22;11910;52.086;21.066;2022-09-09T08:29:02;14.60;99.90
23475;DHT22;11910;52.086;21.066;2022-09-09T08:31:36;14.50;99.90
23475;DHT22;11910;52.086;21.066;2022-09-09T08:34:03;14.60;99.90
23475;DHT22;11910;52.086;21.066;2022-09-09T08:36:31;14.60;99.90
23475;DHT22;11910;52.086;21.066;2022-09-09T08:38:59;14.70;99.90
23475;DHT22;11910;52.086;21.066;2022-09-09T08:50:13;14.70;99.90
23475;DHT22;11910;52.086;21.066;2022-09-09T08:58:10;14.80;99.90
23475;DHT22;11910;52.086;21.066;2022-09-09T09:11:54;14.90;99.90
23475;DHT22;11910;52.086;21.066;2022-09-09T09:14:23;15.00;99.90
23475;DHT22;11910;52.086;21.066;2022-09-09T09:19:25;15.10;99.90
23475;DHT22;11910;52.086;21.066;2022-09-09T09:22:35;15.00;99.90
23475;DHT22;11910;52.086;21.066;2022-09-09T09:25:08;15.00;99.90
23475;DHT22;11910;52.086;21.066;2022-09-09T09:27:57;15.10;99.90
23475;DHT22;11910;52.086;21.066;2022-09-09T09:30:29;15.10;99.90
23475;DHT22;11910;52.086;21.066;2022-09-09T09:33:12;15.00;99.90
23475;DHT22;11910;52.086;21.066;2022-09-09T09:35:40;15.00;99.90
23475;DHT22;11910;52.086;21.066;2022-09-09T09:38:23;15.00;99.90
23475;DHT22;11910;52.086;21.066;2022-09-09T09:40:55;15.10;99.90
23475;DHT22;11910;52.086;21.066;2022-09-09T09:43:33;15.20;99.90
23475;DHT22;11910;52.086;21.066;2022-09-09T09:45:59;15.20;99.90
23475;DHT22;11910;52.086;21.066;2022-09-09T09:48:27;15.20;99.90
23475;DHT22;11910;52.086;21.066;2022-09-09T09:50:58;15.20;99.90
23475;DHT22;11910;52.086;21.066;2022-09-09T09:53:28;15.10;99.90
23475;DHT22;11910;52.086;21.066;2022-09-09T09:56:00;15.20;99.90
23475;DHT22;11910;52.086;21.066;2022-09-09T09:58:29;15.20;99.90
23475;DHT22;11910;52.086;21.066;2022-09-09T10:00:56;15.30;99.90
23475;DHT22;11910;52.086;21.066;2022-09-09T10:03:25;15.30;99.90
23475;DHT22;11910;52.086;21.066;2022-09-09T10:05:53;15.30;99.90
23475;DHT22;11910;52.086;21.066;2022-09-09T10:08:19;15.40;99.90
23475;DHT22;11910;52.086;21.066;2022-09-09T10:19:15;15.40;99.90
23475;DHT22;11910;52.086;21.066;2022-09-09T10:21:48;15.50;99.90
23475;DHT22;11910;52.086;21.066;2022-09-09T10:27:23;15.50;99.90
23475;DHT22;11910;52.086;21.066;2022-09-09T10:40:34;15.60;99.90
23475;DHT22;11910;52.086;21.066;2022-09-09T10:45:48;15.60;99.90
23475;DHT22;11910;52.086;21.066;2022-09-09T10:51:28;15.60;99.90
23475;DHT22;11910;52.086;21.066;2022-09-09T10:54:22;15.60;99.90
23475;DHT22;11910;52.086;21.066;2022-09-09T10:57:16;15.60;99.90
23475;DHT22;11910;52.086;21.066;2022-09-09T10:59:47;15.60;99.90
23475;DHT22;11910;52.086;21.066;2022-09-09T11:02:22;15.60;99.90
23475;DHT22;11910;52.086;21.066;2022-09-09T11:04:57;15.70;99.90
23475;DHT22;11910;52.086;21.066;2022-09-09T11:07:44;15.70;99.90
23475;DHT22;11910;52.086;21.066;2022-09-09T11:12:59;15.70;99.90
23475;DHT22;11910;52.086;21.066;2022-09-09T11:15:31;15.70;99.90
23475;DHT22;11910;52.086;21.066;2022-09-09T11:18:04;15.60;99.90
23475;DHT22;11910;52.086;21.066;2022-09-09T11:20:30;15.70;99.90
23475;DHT22;11910;52.086;21.066;2022-09-09T11:23:13;15.70;99.90
23475;DHT22;11910;52.086;21.066;2022-09-09T11:25:44;15.80;99.90
23475;DHT22;11910;52.086;21.066;2022-09-09T11:34:36;15.90;99.90
23475;DHT22;11910;52.086;21.066;2022-09-09T11:40:14;15.90;99.90
23475;DHT22;11910;52.086;21.066;2022-09-09T11:42:41;15.90;99.90
23475;DHT22;11910;52.086;21.066;2022-09-09T11:47:58;15.80;99.90
23475;DHT22;11910;52.086;21.066;2022-09-09T11:52:50;15.80;99.90
23475;DHT22;11910;52.086;21.066;2022-09-09T11:55:28;15.80;99.90
23475;DHT22;11910;52.086;21.066;2022-09-09T12:03:33;16.00;99.90
23475;DHT22;11910;52.086;21.066;2022-09-09T12:08:57;16.00;99.90
23475;DHT22;11910;52.086;21.066;2022-09-09T12:11:28;16.10;99.90
23475;DHT22;11910;52.086;21.066;2022-09-09T12:13:59;16.10;99.90
23475;DHT22;11910;52.086;21.066;2022-09-09T12:16:37;16.00;99.90
23475;DHT22;11910;52.086;21.066;2022-09-09T12:19:06;16.00;99.90
23475;DHT22;11910;52.086;21.066;2022-09-09T12:24:27;16.00;99.90
23475;DHT22;11910;52.086;21.066;2022-09-09T12:32:15;16.00;99.90
23475;DHT22;11910;52.086;21.066;2022-09-09T12:34:53;15.90;99.90
23475;DHT22;11910;52.086;21.066;2022-09-09T12:37:40;15.80;99.90
23475;DHT22;11910;52.086;21.066;2022-09-09T12:40:31;15.80;99.90
23475;DHT22;11910;52.086;21.066;2022-09-09T12:42:58;15.90;99.90
23475;DHT22;11910;52.086;21.066;2022-09-09T12:45:59;15.80;99.90
23475;DHT22;11910;52.086;21.066;2022-09-09T12:48:39;15.80;99.90
23475;DHT22;11910;52.086;21.066;2022-09-09T12:53:51;15.80;99.90
23475;DHT22;11910;52.086;21.066;2022-09-09T12:56:22;15.90;99.90
23475;DHT22;11910;52.086;21.066;2022-09-09T12:58:50;15.90;99.90
23475;DHT22;11910;52.086;21.066;2022-09-09T13:01:27;15.80;99.90
23475;DHT22;11910;52.086;21.066;2022-09-09T13:03:54;15.70;99.90
23475;DHT22;11910;52.086;21.066;2022-09-09T13:06:21;15.70;99.90
23475;DHT22;11910;52.086;21.066;2022-09-09T13:08:49;15.70;99.90
23475;DHT22;11910;52.086;21.066;2022-09-09T13:11:29;15.80;99.90
23475;DHT22;11910;52.086;21.066;2022-09-09T13:13:57;15.70;99.90
23475;DHT22;11910;52.086;21.066;2022-09-09T13:16:26;15.80;99.90
23475;DHT22;11910;52.086;21.066;2022-09-09T13:18:58;15.80;99.90
23475;DHT22;11910;52.086;21.066;2022-09-09T13:21:38;15.80;99.90
23475;DHT22;11910;52.086;21.066;2022-09-09T13:24:30;15.90;99.90
23475;DHT22;11910;52.086;21.066;2022-09-09T13:26:57;15.90;99.90
23475;DHT22;11910;52.086;21.066;2022-09-09T13:29:23;15.90;99.90
23475;DHT22;11910;52.086;21.066;2022-09-09T13:31:50;15.90;99.90
23475;DHT22;11910;52.086;21.066;2022-09-09T13:34:31;15.80;99.90
23475;DHT22;11910;52.086;21.066;2022-09-09T13:36:59;15.70;99.90
23475;DHT22;11910;52.086;21.066;2022-09-09T13:39:33;15.80;99.90
23475;DHT22;11910;52.086;21.066;2022-09-09T13:41:59;15.80;99.90
23475;DHT22;11910;52.086;21.066;2022-09-09T13:44:25;15.70;99.90
23475;DHT22;11910;52.086;21.066;2022-09-09T13:49:42;15.70;99.90
23475;DHT22;11910;52.086;21.066;2022-09-09T13:52:18;15.60;99.90
23475;DHT22;11910;52.086;21.066;2022-09-09T13:54:51;15.60;99.90
23475;DHT22;11910;52.086;21.066;2022-09-09T13:57:20;15.60;99.90
23475;DHT22;11910;52.086;21.066;2022-09-09T13:59:46;15.60;99.90
23475;DHT22;11910;52.086;21.066;2022-09-09T14:02:13;15.60;99.90
23475;DHT22;11910;52.086;21.066;2022-09-09T14:04:39;15.60;99.90
23475;DHT22;11910;52.086;21.066;2022-09-09T14:07:12;15.60;99.90
23475;DHT22;11910;52.086;21.066;2022-09-09T14:09:40;15.60;99.90
23475;DHT22;11910;52.086;21.066;2022-09-09T14:12:10;15.70;99.90
23475;DHT22;11910;52.086;21.066;2022-09-09T14:14:36;15.60;99.90
23475;DHT22;11910;52.086;21.066;2022-09-09T14:17:01;15.70;99.90
23475;DHT22;11910;52.086;21.066;2022-09-09T14:19:27;15.60;99.90
23475;DHT22;11910;52.086;21.066;2022-09-09T14:21:52;15.70;99.90
23475;DHT22;11910;52.086;21.066;2022-09-09T14:24:18;15.60;99.90
23475;DHT22;11910;52.086;21.066;2022-09-09T14:26:44;15.60;99.90
23475;DHT22;11910;52.086;21.066;2022-09-09T14:29:09;15.70;99.90
23475;DHT22;11910;52.086;21.066;2022-09-09T14:31:35;15.70;99.90
23475;DHT22;11910;52.086;21.066;2022-09-09T14:34:00;15.80;99.90
23475;DHT22;11910;52.086;21.066;2022-09-09T14:36:26;15.80;99.90
23475;DHT22;11910;52.086;21.066;2022-09-09T14:38:52;15.70;99.90
23475;DHT22;11910;52.086;21.066;2022-09-09T14:41:18;15.80;99.90
23475;DHT22;11910;52.086;21.066;2022-09-09T14:43:46;15.80;99.90
23475;DHT22;11910;52.086;21.066;2022-09-09T14:46:14;15.90;99.90
23475;DHT22;11910;52.086;21.066;2022-09-09T14:48:40;16.00;99.90
23475;DHT22;11910;52.086;21.066;2022-09-09T14:51:12;16.00;99.90
23475;DHT22;11910;52.086;21.066;2022-09-09T14:53:39;16.00;99.90
23475;DHT22;11910;52.086;21.066;2022-09-09T14:56:11;16.00;99.90
23475;DHT22;11910;52.086;21.066;2022-09-09T14:58:38;16.00;99.90
23475;DHT22;11910;52.086;21.066;2022-09-09T15:01:08;16.10;99.90
23475;DHT22;11910;52.086;21.066;2022-09-09T15:03:36;16.10;99.90
23475;DHT22;11910;52.086;21.066;2022-09-09T15:06:22;16.10;99.90
23475;DHT22;11910;52.086;21.066;2022-09-09T15:08:50;15.90;99.90
23475;DHT22;11910;52.086;21.066;2022-09-09T15:11:16;15.90;99.90
23475;DHT22;11910;52.086;21.066;2022-09-09T15:13:43;15.90;99.90
23475;DHT22;11910;52.086;21.066;2022-09-09T15:16:12;15.90;99.90
23475;DHT22;11910;52.086;21.066;2022-09-09T15:18:38;15.90;99.90
23475;DHT22;11910;52.086;21.066;2022-09-09T15:21:19;16.00;99.90
23475;DHT22;11910;52.086;21.066;2022-09-09T15:23:46;16.00;99.90
23475;DHT22;11910;52.086;21.066;2022-09-09T15:26:13;16.00;99.90
23475;DHT22;11910;52.086;21.066;2022-09-09T15:28:39;16.00;99.90
23475;DHT22;11910;52.086;21.066;2022-09-09T15:31:20;16.00;99.90
23475;DHT22;11910;52.086;21.066;2022-09-09T15:33:49;16.10;99.90
23475;DHT22;11910;52.086;21.066;2022-09-09T15:36:25;16.10;99.90
23475;DHT22;11910;52.086;21.066;2022-09-09T15:38:52;16.00;99.90
23475;DHT22;11910;52.086;21.066;2022-09-09T15:41:19;16.00;99.90
23475;DHT22;11910;52.086;21.066;2022-09-09T15:43:47;16.10;99.90
23475;DHT22;11910;52.086;21.066;2022-09-09T15:48:42;16.00;99.90
23475;DHT22;11910;52.086;21.066;2022-09-09T15:51:10;16.10;99.90
23475;DHT22;11910;52.086;21.066;2022-09-09T15:53:39;16.00;99.90
23475;DHT22;11910;52.086;21.066;2022-09-09T15:56:05;16.00;99.90
23475;DHT22;11910;52.086;21.066;2022-09-09T15:58:35;16.00;99.90
23475;DHT22;11910;52.086;21.066;2022-09-09T16:01:08;15.90;99.90
23475;DHT22;11910;52.086;21.066;2022-09-09T16:03:35;16.00;99.90
23475;DHT22;11910;52.086;21.066;2022-09-09T16:06:01;15.90;99.90
23475;DHT22;11910;52.086;21.066;2022-09-09T16:08:39;16.00;99.90
23475;DHT22;11910;52.086;21.066;2022-09-09T16:11:10;16.00;99.90
23475;DHT22;11910;52.086;21.066;2022-09-09T16:13:37;15.90;99.90
23475;DHT22;11910;52.086;21.066;2022-09-09T16:16:03;15.90;99.90
23475;DHT22;11910;52.086;21.066;2022-09-09T16:18:36;16.00;99.90
23475;DHT22;11910;52.086;21.066;2022-09-09T16:21:03;15.90;99.90
23475;DHT22;11910;52.086;21.066;2022-09-09T16:23:31;15.80;99.90
23475;DHT22;11910;52.086;21.066;2022-09-09T16:25:57;15.90;99.90
23475;DHT22;11910;52.086;21.066;2022-09-09T16:28:23;15.90;99.90
23475;DHT22;11910;52.086;21.066;2022-09-09T16:30:49;16.00;99.90
23475;DHT22;11910;52.086;21.066;2022-09-09T16:33:16;15.90;99.90
23475;DHT22;11910;52.086;21.066;2022-09-09T16:35:41;15.90;99.90
23475;DHT22;11910;52.086;21.066;2022-09-09T16:38:08;15.90;99.90
23475;DHT22;11910;52.086;21.066;2022-09-09T16:40:34;16.00;99.90
23475;DHT22;11910;52.086;21.066;2022-09-09T16:43:07;16.00;99.90
23475;DHT22;11910;52.086;21.066;2022-09-09T16:45:32;16.00;99.90
23475;DHT22;11910;52.086;21.066;2022-09-09T16:47:59;15.90;99.90
23475;DHT22;11910;52.086;21.066;2022-09-09T16:50:26;15.80;99.90
23475;DHT22;11910;52.086;21.066;2022-09-09T16:52:51;15.80;99.90
23475;DHT22;11910;52.086;21.066;2022-09-09T16:55:18;15.70;99.90
23475;DHT22;11910;52.086;21.066;2022-09-09T16:57:46;15.80;99.90
23475;DHT22;11910;52.086;21.066;2022-09-09T17:00:14;15.80;99.90
23475;DHT22;11910;52.086;21.066;2022-09-09T17:02:40;15.80;99.90
23475;DHT22;11910;52.086;21.066;2022-09-09T17:05:06;15.80;99.90
23475;DHT22;11910;52.086;21.066;2022-09-09T17:07:31;15.70;99.90
23475;DHT22;11910;52.086;21.066;2022-09-09T17:09:57;15.70;99.90
23475;DHT22;11910;52.086;21.066;2022-09-09T17:12:23;15.60;99.90
23475;DHT22;11910;52.086;21.066;2022-09-09T17:14:49;15.60;99.90
23475;DHT22;11910;52.086;21.066;2022-09-09T17:17:16;15.60;99.90
23475;DHT22;11910;52.086;21.066;2022-09-09T17:19:42;15.60;99.90
23475;DHT22;11910;52.086;21.066;2022-09-09T17:22:08;15.60;99.90
23475;DHT22;11910;52.086;21.066;2022-09-09T17:24:34;15.60;99.90
23475;DHT22;11910;52.086;21.066;2022-09-09T17:27:00;15.50;99.90
23475;DHT22;11910;52.086;21.066;2022-09-09T17:29:26;15.50;99.90
23475;DHT22;11910;52.086;21.066;2022-09-09T17:31:52;15.50;99.90
23475;DHT22;11910;52.086;21.066;2022-09-09T17:34:18;15.40;99.90
23475;DHT22;11910;52.086;21.066;2022-09-09T17:36:44;15.40;99.90
23475;DHT22;11910;52.086;21.066;2022-09-09T17:39:09;15.30;99.90
23475;DHT22;11910;52.086;21.066;2022-09-09T17:41:39;15.30;99.90
23475;DHT22;11910;52.086;21.066;2022-09-09T17:44:06;15.30;99.90
23475;DHT22;11910;52.086;21.066;2022-09-09T17:46:37;15.30;99.90